createdAt,value
2023-05-21T00:00:23.573Z,72.10
2023-05-21T00:04:29.757Z,72.30
2023-05-21T00:08:35.312Z,72.60
2023-05-21T00:12:41.918Z,72.60
2023-05-21T00:16:47.811Z,72.80
2023-05-21T00:20:53.782Z,73.20
2023-05-21T00:25:00.029Z,73.60
2023-05-21T00:29:05.519Z,73.30
2023-05-21T00:33:13.843Z,73.60
2023-05-21T00:37:19.464Z,73.80
2023-05-21T00:41:26.013Z,74.40
2023-05-21T00:45:31.523Z,73.90
2023-05-21T00:49:37.041Z,74.40
2023-05-21T00:53:43.097Z,74.40
2023-05-21T00:57:49.526Z,74.10
2023-05-21T01:01:56.729Z,74.30
2023-05-21T01:06:02.396Z,74.30
2023-05-21T01:10:10.651Z,74.30
2023-05-21T01:14:17.841Z,74.80
2023-05-21T01:18:23.883Z,74.80
2023-05-21T01:22:32.750Z,75.00
2023-05-21T01:26:38.996Z,75.50
2023-05-21T01:30:44.677Z,75.40
2023-05-21T01:35:05.616Z,75.50
2023-05-21T01:39:21.046Z,75.70
2023-05-21T01:43:29.953Z,75.90
2023-05-21T01:47:37.337Z,76.20
2023-05-21T01:51:43.343Z,76.40
2023-05-21T01:55:48.875Z,77.00
2023-05-21T01:59:55.245Z,76.40
2023-05-21T02:04:00.967Z,76.50
2023-05-21T02:08:08.464Z,76.40
2023-05-21T02:12:14.218Z,76.80
2023-05-21T02:16:20.041Z,77.00
2023-05-21T02:20:25.530Z,76.90
2023-05-21T02:24:31.386Z,76.80
2023-05-21T02:28:36.908Z,77.10
2023-05-21T02:32:43.630Z,77.50
2023-05-21T02:36:52.289Z,77.40
2023-05-21T02:40:57.809Z,77.60
2023-05-21T02:45:03.591Z,77.40
2023-05-21T02:49:09.169Z,77.90
2023-05-21T02:53:14.701Z,78.20
2023-05-21T02:57:20.623Z,78.40
2023-05-21T03:01:26.367Z,78.50
2023-05-21T03:05:31.912Z,78.50
2023-05-21T03:09:37.409Z,78.50
2023-05-21T03:13:43.174Z,78.80
2023-05-21T03:17:48.946Z,78.80
2023-05-21T03:21:56.477Z,78.80
2023-05-21T03:26:02.467Z,79.20
2023-05-21T03:30:09.459Z,79.00
2023-05-21T03:34:15.049Z,79.20
2023-05-21T03:38:20.539Z,79.50
2023-05-21T03:42:26.118Z,79.60
2023-05-21T03:46:32.557Z,79.70
2023-05-21T03:50:38.546Z,79.40
2023-05-21T03:54:44.084Z,79.80
2023-05-21T03:58:49.601Z,79.90
2023-05-21T04:02:55.260Z,79.90
2023-05-21T04:07:00.945Z,80.00
2023-05-21T04:11:06.445Z,80.30
2023-05-21T04:15:12.570Z,80.20
2023-05-21T04:19:18.072Z,80.00
2023-05-21T04:23:23.962Z,79.90
2023-05-21T04:27:29.873Z,80.00
2023-05-21T04:31:35.396Z,80.00
2023-05-21T04:35:44.559Z,80.20
2023-05-21T04:39:50.205Z,81.00
2023-05-21T04:43:55.689Z,80.70
2023-05-21T04:48:01.246Z,80.60
2023-05-21T04:52:08.481Z,80.80
2023-05-21T04:56:14.659Z,80.80
2023-05-21T05:00:21.449Z,80.50
2023-05-21T05:04:26.969Z,80.20
2023-05-21T05:08:32.461Z,80.00
2023-05-21T05:12:38.269Z,80.00
2023-05-21T05:16:43.791Z,79.70
2023-05-21T05:20:49.270Z,79.70
2023-05-21T05:24:54.762Z,80.30
2023-05-21T05:29:00.305Z,79.30
2023-05-21T05:33:05.896Z,79.20
2023-05-21T05:37:11.439Z,78.80
2023-05-21T05:41:16.923Z,78.70
2023-05-21T05:45:22.438Z,78.60
2023-05-21T05:49:27.923Z,78.30
2023-05-21T05:53:33.436Z,78.10
2023-05-21T05:57:38.958Z,77.90
2023-05-21T06:01:44.458Z,77.70
2023-05-21T06:05:50.222Z,78.00
2023-05-21T06:09:55.899Z,77.00
2023-05-21T06:14:01.782Z,76.90
2023-05-21T06:18:07.377Z,77.30
2023-05-21T06:22:12.904Z,76.50
2023-05-21T06:26:19.795Z,76.20
2023-05-21T06:30:25.294Z,76.00
2023-05-21T06:34:30.815Z,75.70
2023-05-21T06:38:36.339Z,75.20
2023-05-21T06:42:41.845Z,74.70
2023-05-21T06:46:47.348Z,75.00
2023-05-21T06:50:52.855Z,74.40
2023-05-21T06:54:58.439Z,74.40
2023-05-21T06:59:03.917Z,73.90
2023-05-21T07:03:10.132Z,74.00
2023-05-21T07:07:15.744Z,74.10
2023-05-21T07:11:21.552Z,73.70
2023-05-21T07:15:27.209Z,73.40
2023-05-21T07:19:32.857Z,73.00
2023-05-21T07:23:38.433Z,72.80
2023-05-21T07:27:43.930Z,72.70
2023-05-21T07:31:49.417Z,72.20
2023-05-21T07:35:54.910Z,71.70
2023-05-21T07:40:00.492Z,71.60
2023-05-21T07:44:06.187Z,71.10
2023-05-21T07:48:11.793Z,70.80
2023-05-21T07:52:17.333Z,70.80
2023-05-21T07:56:23.080Z,71.10
2023-05-21T08:00:28.615Z,70.20
2023-05-21T08:04:34.174Z,69.80
2023-05-21T08:08:39.695Z,69.70
2023-05-21T08:12:45.179Z,69.30
2023-05-21T08:16:51.062Z,69.20
2023-05-21T08:20:56.712Z,69.10
2023-05-21T08:25:02.227Z,68.90
2023-05-21T08:29:07.705Z,68.60
2023-05-21T08:33:13.973Z,68.60
2023-05-21T08:37:21.421Z,68.60
2023-05-21T08:41:28.741Z,68.20
2023-05-21T08:45:38.298Z,68.30
2023-05-21T08:49:45.730Z,67.90
2023-05-21T08:53:51.289Z,67.60
2023-05-21T08:57:56.883Z,67.20
2023-05-21T09:02:03.638Z,67.10
2023-05-21T09:06:14.201Z,66.90
2023-05-21T09:10:27.429Z,66.40
2023-05-21T09:14:33.313Z,66.30
2023-05-21T09:18:38.828Z,66.70
2023-05-21T09:22:46.826Z,66.50
2023-05-21T09:26:52.546Z,66.30
2023-05-21T09:31:03.997Z,66.30
2023-05-21T09:35:12.551Z,66.00
2023-05-21T09:39:30.563Z,66.40
2023-05-21T09:43:37.070Z,65.70
2023-05-21T09:47:44.157Z,66.20
2023-05-21T09:51:49.975Z,65.80
2023-05-21T09:55:58.303Z,65.70
2023-05-21T10:00:06.494Z,65.40
2023-05-21T10:04:12.543Z,65.40
2023-05-21T10:08:21.922Z,65.20
2023-05-21T10:12:30.576Z,66.00
2023-05-21T10:16:37.792Z,65.40
2023-05-21T10:20:43.656Z,64.40
2023-05-21T10:24:50.714Z,64.60
2023-05-21T10:29:00.041Z,63.60
2023-05-21T10:33:06.252Z,63.20
2023-05-21T10:37:13.505Z,63.50
2023-05-21T10:41:21.920Z,63.70
2023-05-21T10:45:55.570Z,63.50
2023-05-21T10:50:28.800Z,63.10
2023-05-21T10:54:40.135Z,63.20
2023-05-21T10:59:43.454Z,63.90
2023-05-21T11:03:49.669Z,63.50
2023-05-21T11:07:58.623Z,64.00
2023-05-21T11:12:04.927Z,64.00
2023-05-21T11:16:17.994Z,63.60
2023-05-21T11:20:23.548Z,63.80
2023-05-21T11:24:33.675Z,63.20
2023-05-21T11:28:39.170Z,63.40
2023-05-21T11:33:14.072Z,62.70
2023-05-21T11:37:22.346Z,61.60
2023-05-21T11:41:27.852Z,62.20
2023-05-21T11:45:33.573Z,61.60
2023-05-21T11:49:39.773Z,62.20
2023-05-21T11:53:46.335Z,61.50
2023-05-21T11:57:54.627Z,60.20
2023-05-21T12:02:00.490Z,60.80
2023-05-21T12:06:07.115Z,60.20
2023-05-21T12:10:13.326Z,59.60
2023-05-21T12:14:19.070Z,59.60
2023-05-21T12:18:25.966Z,59.30
2023-05-21T12:22:31.473Z,58.90
2023-05-21T12:26:37.044Z,58.50
2023-05-21T12:30:42.541Z,58.90
2023-05-21T12:34:54.889Z,58.70
2023-05-21T12:39:00.563Z,58.20
2023-05-21T12:43:06.963Z,58.30
2023-05-21T12:47:13.280Z,58.50
2023-05-21T12:51:19.362Z,58.40
2023-05-21T12:55:26.352Z,58.40
2023-05-21T12:59:57.015Z,57.90
2023-05-21T13:04:05.089Z,57.30
2023-05-21T13:08:11.293Z,57.40
2023-05-21T13:12:16.947Z,57.10
2023-05-21T13:16:23.716Z,57.10
2023-05-21T13:20:29.641Z,57.20
2023-05-21T13:24:35.156Z,56.90
2023-05-21T13:28:42.771Z,56.60
2023-05-21T13:32:49.090Z,56.60
2023-05-21T13:36:54.680Z,55.80
2023-05-21T13:41:00.171Z,55.90
2023-05-21T13:45:08.782Z,55.00
2023-05-21T13:49:14.353Z,54.50
2023-05-21T13:53:19.894Z,54.90
2023-05-21T13:57:27.023Z,54.00
2023-05-21T14:01:32.649Z,54.40
2023-05-21T14:05:38.500Z,54.10
2023-05-21T14:09:44.000Z,53.60
2023-05-21T14:13:49.529Z,53.80
2023-05-21T14:17:55.133Z,53.50
2023-05-21T14:22:00.732Z,53.90
2023-05-21T14:26:06.456Z,53.10
2023-05-21T14:30:12.218Z,53.80
2023-05-21T14:34:17.848Z,53.70
2023-05-21T14:38:23.425Z,53.20
2023-05-21T14:42:28.909Z,53.00
2023-05-21T14:46:34.555Z,53.10
2023-05-21T14:50:40.901Z,52.60
2023-05-21T14:54:46.423Z,52.90
2023-05-21T14:58:52.336Z,53.60
2023-05-21T15:02:58.144Z,53.10
2023-05-21T15:07:03.831Z,53.20
2023-05-21T15:11:11.502Z,53.50
2023-05-21T15:15:17.678Z,53.80
2023-05-21T15:19:23.361Z,53.80
2023-05-21T15:23:29.085Z,54.40
2023-05-21T15:27:35.268Z,54.70
2023-05-21T15:31:40.985Z,54.90
2023-05-21T15:35:46.651Z,55.60
2023-05-21T15:39:53.433Z,55.50
2023-05-21T15:43:58.957Z,55.90
2023-05-21T15:48:05.166Z,55.90
2023-05-21T15:52:10.733Z,56.10
2023-05-21T15:56:16.685Z,56.30
2023-05-21T16:00:22.151Z,56.30
2023-05-21T16:04:27.680Z,56.70
2023-05-21T16:08:33.405Z,57.40
2023-05-21T16:12:38.901Z,57.50
2023-05-21T16:16:44.657Z,57.50
2023-05-21T16:20:50.126Z,58.00
2023-05-21T16:24:56.313Z,58.30
2023-05-21T16:29:02.345Z,58.60
2023-05-21T16:33:08.106Z,59.00
2023-05-21T16:37:13.645Z,59.30
2023-05-21T16:41:19.182Z,59.50
2023-05-21T16:45:24.726Z,59.80
2023-05-21T16:49:30.300Z,60.00
2023-05-21T16:53:35.892Z,60.30
2023-05-21T16:57:41.378Z,60.60
2023-05-21T17:01:46.960Z,60.80
2023-05-21T17:05:53.060Z,61.00
2023-05-21T17:09:58.557Z,61.10
2023-05-21T17:14:04.054Z,61.10
2023-05-21T17:18:09.593Z,61.20
2023-05-21T17:22:15.151Z,61.40
2023-05-21T17:26:21.786Z,61.70
2023-05-21T17:30:27.354Z,62.00
2023-05-21T17:34:32.893Z,61.90
2023-05-21T17:38:38.402Z,61.80
2023-05-21T17:42:43.860Z,62.00
2023-05-21T17:46:50.819Z,61.80
2023-05-21T17:50:56.380Z,62.00
2023-05-21T17:55:02.093Z,62.00
2023-05-21T17:59:09.118Z,62.30
2023-05-21T18:03:14.712Z,62.40
2023-05-21T18:07:22.200Z,62.50
2023-05-21T18:11:27.741Z,62.40
2023-05-21T18:15:34.211Z,62.50
2023-05-21T18:19:39.823Z,62.80
2023-05-21T18:23:45.411Z,62.70
2023-05-21T18:27:52.129Z,62.70
2023-05-21T18:31:57.658Z,62.90
2023-05-21T18:36:03.402Z,63.00
2023-05-21T18:40:09.716Z,63.20
2023-05-21T18:44:15.209Z,63.40
2023-05-21T18:48:20.782Z,63.60
2023-05-21T18:52:26.532Z,63.90
2023-05-21T18:56:32.012Z,64.00
2023-05-21T19:00:39.603Z,64.20
2023-05-21T19:04:45.618Z,64.60
2023-05-21T19:08:52.946Z,64.60
2023-05-21T19:12:58.553Z,64.80
2023-05-21T19:17:04.194Z,65.10
2023-05-21T19:21:09.782Z,65.40
2023-05-21T19:25:15.405Z,65.80
2023-05-21T19:29:21.732Z,66.00
2023-05-21T19:33:27.304Z,66.30
2023-05-21T19:37:32.837Z,66.60
2023-05-21T19:41:38.326Z,66.80
2023-05-21T19:45:43.916Z,66.80
2023-05-21T19:49:49.491Z,67.10
2023-05-21T19:53:54.967Z,67.20
2023-05-21T19:58:00.611Z,67.50
2023-05-21T20:02:06.164Z,67.80
2023-05-21T20:06:12.314Z,67.90
2023-05-21T20:10:18.407Z,68.20
2023-05-21T20:14:23.894Z,68.30
2023-05-21T20:18:29.374Z,68.50
2023-05-21T20:22:34.891Z,68.60
2023-05-21T20:26:40.733Z,68.80
2023-05-21T20:30:57.382Z,69.60
2023-05-21T20:35:04.021Z,69.30
2023-05-21T20:39:10.118Z,69.30
2023-05-21T20:43:15.649Z,69.50
2023-05-21T20:47:23.349Z,69.80
2023-05-21T20:51:28.993Z,69.90
2023-05-21T20:55:34.896Z,70.10
2023-05-21T20:59:40.562Z,70.30
2023-05-21T21:03:46.424Z,70.40
2023-05-21T21:07:55.464Z,70.60
2023-05-21T21:12:06.228Z,70.80
2023-05-21T21:16:17.035Z,70.90
2023-05-21T21:20:22.554Z,71.00
2023-05-21T21:24:28.054Z,71.00
2023-05-21T21:28:33.637Z,71.30
2023-05-21T21:32:39.252Z,71.40
2023-05-21T21:36:44.812Z,71.50
2023-05-21T21:40:50.315Z,71.60
2023-05-21T21:44:55.808Z,71.70
2023-05-21T21:49:01.303Z,71.80
2023-05-21T21:53:06.819Z,71.90
2023-05-21T21:57:12.297Z,72.10
2023-05-21T22:01:17.978Z,72.10
2023-05-21T22:05:23.479Z,72.20
2023-05-21T22:09:29.122Z,72.40
2023-05-21T22:13:34.836Z,72.40
2023-05-21T22:17:40.482Z,72.60
2023-05-21T22:21:46.414Z,72.70
2023-05-21T22:25:52.210Z,72.80
2023-05-21T22:29:57.745Z,72.90
2023-05-21T22:34:03.290Z,72.90
2023-05-21T22:38:08.776Z,73.10
2023-05-21T22:42:14.249Z,73.20
2023-05-21T22:46:19.862Z,73.30
2023-05-21T22:50:29.386Z,73.30
2023-05-21T22:54:37.874Z,73.50
2023-05-21T22:58:43.430Z,73.50
2023-05-21T23:02:50.636Z,73.60
2023-05-21T23:06:57.827Z,73.70
2023-05-21T23:11:03.530Z,73.70
2023-05-21T23:15:09.997Z,74.40
2023-05-21T23:19:16.800Z,73.90
2023-05-21T23:23:22.400Z,73.70
2023-05-21T23:27:27.897Z,73.80
2023-05-21T23:31:33.483Z,74.00
2023-05-21T23:35:38.979Z,74.00
2023-05-21T23:39:48.115Z,74.20
2023-05-21T23:43:54.360Z,74.30
2023-05-21T23:47:59.928Z,74.30
2023-05-21T23:52:06.447Z,74.40
2023-05-21T23:56:12.032Z,74.50
